Time;durP1;ratioP1;P1;durP2;ratioP2;P2;SDS_P1;SDS_P2;PMS_P1;PMS_P2;Temp;Humidity;BMP_temperature;BMP_pressure;BME280_temperature;BME280_humidity;BME280_pressure;Samples;Min_cycle;Max_cycle;Signal;HPM_P1;HPM_P2
2023/09/02 00:02:19;;;;;;;;;;;;;;;18.52;nan;101670.91;5062701;28;19924;-82
2023/09/02 00:04:45;;;;;;;;;;;;;;;18.51;nan;101678.22;5063237;28;19960;-82
2023/09/02 00:07:10;;;;;;;;;;;;;;;18.52;nan;101676.31;5059047;28;20182;-83
2023/09/02 00:09:35;;;;;;;;;;;;;;;18.52;nan;101674.41;5062843;28;19927;-83
2023/09/02 00:12:01;;;;;;;;;;;;;;;18.50;nan;101673.06;5058568;28;19924;-83
2023/09/02 00:14:26;;;;;;;;;;;;;;;18.46;nan;101680.13;5063760;28;19917;-83
2023/09/02 00:16:51;;;;;;;;;;;;;;;18.38;nan;101676.91;5059127;28;20697;-83
2023/09/02 00:19:17;;;;;;;;;;;;;;;18.32;nan;101683.47;5065332;28;19912;-83
2023/09/02 00:21:42;;;;;;;;;;;;;;;18.28;nan;101686.97;5061254;28;19920;-83
2023/09/02 00:24:07;;;;;;;;;;;;;;;18.22;nan;101683.47;5062841;28;20422;-83
2023/09/02 00:26:33;;;;;;;;;;;;;;;18.18;nan;101685.13;5058811;28;20071;-82
2023/09/02 00:29:02;;;;;;;;;;;;;;;18.13;nan;101685.13;5061073;28;19921;-82
2023/09/02 00:31:28;;;;;;;;;;;;;;;18.10;nan;101683.78;5060975;28;19920;-83
2023/09/02 00:33:53;;;;;;;;;;;;;;;18.08;nan;101682.44;5056198;28;20239;-83
2023/09/02 00:36:19;;;;;;;;;;;;;;;18.05;nan;101691.94;5061058;28;19999;-83
2023/09/02 00:38:44;;;;;;;;;;;;;;;18.05;nan;101691.13;5058290;28;20592;-83
2023/09/02 00:41:12;;;;;;;;;;;;;;;18.04;nan;101690.31;5057250;28;20441;-83
2023/09/02 00:43:38;;;;;;;;;;;;;;;18.02;nan;101697.09;5055222;28;19978;-83
2023/09/02 00:46:04;;;;;;;;;;;;;;;18.00;nan;101691.94;5054331;28;19916;-83
2023/09/02 00:48:30;;;;;;;;;;;;;;;17.98;nan;101690.63;5055699;28;20002;-83
2023/09/02 00:50:56;;;;;;;;;;;;;;;17.96;nan;101699.03;5052885;28;19924;-83
2023/09/02 00:53:24;;;;;;;;;;;;;;;17.94;nan;101701.16;5055931;28;20396;-82
2023/09/02 00:55:49;;;;;;;;;;;;;;;17.94;nan;101703.06;5058298;28;20003;-83
2023/09/02 00:58:15;;;;;;;;;;;;;;;17.93;nan;101696.03;5061208;28;20020;-83
2023/09/02 01:00:40;;;;;;;;;;;;;;;17.92;nan;101699.81;5058689;28;19924;-83
2023/09/02 01:03:05;;;;;;;;;;;;;;;17.91;nan;101698.19;5056333;28;19921;-83
2023/09/02 01:05:32;;;;;;;;;;;;;;;17.90;nan;101700.09;5053474;28;20640;-83
2023/09/02 01:07:58;;;;;;;;;;;;;;;17.88;nan;101699.56;5057360;28;19917;-83
2023/09/02 01:10:24;;;;;;;;;;;;;;;17.84;nan;101697.69;5059444;28;20466;-83
2023/09/02 01:12:49;;;;;;;;;;;;;;;17.79;nan;101698.50;5054710;28;19924;-83
2023/09/02 01:15:15;;;;;;;;;;;;;;;17.77;nan;101704.19;5062038;28;19917;-82
2023/09/02 01:17:40;;;;;;;;;;;;;;;17.76;nan;101699.84;5064366;28;19927;-83
2023/09/02 01:20:07;;;;;;;;;;;;;;;17.77;nan;101700.66;5060030;28;20385;-83
2023/09/02 01:22:55;;;;;;;;;;;;;;;17.76;nan;101697.13;5057626;28;19978;-82
2023/09/02 01:25:21;;;;;;;;;;;;;;;17.77;nan;101696.06;5055849;28;20007;-83
2023/09/02 01:27:49;;;;;;;;;;;;;;;17.74;nan;101696.59;5059658;28;20034;-82
2023/09/02 01:30:16;;;;;;;;;;;;;;;17.68;nan;101692.28;5055761;28;19920;-83
2023/09/02 01:32:42;;;;;;;;;;;;;;;17.65;nan;101700.91;5060963;28;19917;-83
2023/09/02 01:35:09;;;;;;;;;;;;;;;17.64;nan;101698.47;5059659;28;20368;-83
2023/09/02 01:37:38;;;;;;;;;;;;;;;17.61;nan;101696.31;5056718;28;19920;-83
2023/09/02 01:40:05;;;;;;;;;;;;;;;17.58;nan;101694.94;5058575;28;19932;-83
2023/09/02 01:42:31;;;;;;;;;;;;;;;17.55;nan;101703.63;5060240;28;20010;-83
2023/09/02 01:44:57;;;;;;;;;;;;;;;17.52;nan;101698.75;5058835;28;19920;-83
2023/09/02 01:47:23;;;;;;;;;;;;;;;17.52;nan;101704.16;5060555;28;19926;-83
2023/09/02 01:49:48;;;;;;;;;;;;;;;17.49;nan;101696.59;5057618;28;19946;-82
2023/09/02 01:52:15;;;;;;;;;;;;;;;17.45;nan;101704.44;5060269;28;20023;-83
2023/09/02 01:54:41;;;;;;;;;;;;;;;17.41;nan;101706.03;5058316;28;20046;-83
2023/09/02 01:57:07;;;;;;;;;;;;;;;17.42;nan;101701.47;5059288;28;19923;-83
2023/09/02 01:59:32;;;;;;;;;;;;;;;17.42;nan;101702.28;5061871;28;19916;-83
2023/09/02 02:01:57;;;;;;;;;;;;;;;17.42;nan;101704.19;5061576;28;19921;-82
2023/09/02 02:04:25;;;;;;;;;;;;;;;17.39;nan;101710.94;5060139;28;20686;-82
2023/09/02 02:06:53;;;;;;;;;;;;;;;17.37;nan;101713.09;5060947;28;19924;-83
2023/09/02 02:09:33;;;;;;;;;;;;;;;17.35;nan;101712.56;5062474;28;19927;-83
2023/09/02 02:12:00;;;;;;;;;;;;;;;17.32;nan;101706.88;5064963;28;19916;-83
2023/09/02 02:14:25;;;;;;;;;;;;;;;17.29;nan;101710.13;5062414;28;20018;-83
2023/09/02 02:16:50;;;;;;;;;;;;;;;17.29;nan;101710.13;5061387;28;20034;-83
2023/09/02 02:19:16;;;;;;;;;;;;;;;17.26;nan;101716.91;5063062;28;19923;-83
2023/09/02 02:21:41;;;;;;;;;;;;;;;17.26;nan;101710.66;5060946;28;19920;-83
2023/09/02 02:24:07;;;;;;;;;;;;;;;17.21;nan;101717.69;5062786;28;19923;-83
2023/09/02 02:26:32;;;;;;;;;;;;;;;17.20;nan;101713.34;5061308;28;19969;-83
2023/09/02 02:28:57;;;;;;;;;;;;;;;17.20;nan;101712.53;5064031;28;20015;-83
2023/09/02 02:31:22;;;;;;;;;;;;;;;17.21;nan;101723.09;5061849;28;19924;-82
2023/09/02 02:33:48;;;;;;;;;;;;;;;17.22;nan;101727.44;5060766;28;20498;-83
2023/09/02 02:36:13;;;;;;;;;;;;;;;17.21;nan;101733.13;5062101;28;20291;-83
2023/09/02 02:38:39;;;;;;;;;;;;;;;17.19;nan;101738.81;5058662;28;19985;-83
2023/09/02 02:41:04;;;;;;;;;;;;;;;17.17;nan;101738.25;5058535;28;20399;-83
2023/09/02 02:43:29;;;;;;;;;;;;;;;17.16;nan;101739.34;5060817;28;19920;-83
2023/09/02 02:45:55;;;;;;;;;;;;;;;17.13;nan;101742.59;5063031;28;19921;-83
2023/09/02 02:48:27;;;;;;;;;;;;;;;17.13;nan;101737.19;5063624;28;19920;-83
2023/09/02 02:50:52;;;;;;;;;;;;;;;17.09;nan;101741.50;5063706;28;19960;-83
2023/09/02 02:53:18;;;;;;;;;;;;;;;17.09;nan;101741.50;5062396;28;20476;-83
2023/09/02 02:55:43;;;;;;;;;;;;;;;17.07;nan;101738.25;5062383;28;19916;-83
2023/09/02 02:58:08;;;;;;;;;;;;;;;17.05;nan;101736.88;5063364;28;20003;-83
2023/09/02 03:00:34;;;;;;;;;;;;;;;17.04;nan;101741.47;5061394;28;20380;-83
2023/09/02 03:02:59;;;;;;;;;;;;;;;17.02;nan;101738.22;5062827;28;19921;-83
2023/09/02 03:05:24;;;;;;;;;;;;;;;17.03;nan;101739.03;5060906;28;19931;-83
2023/09/02 03:07:49;;;;;;;;;;;;;;;17.04;nan;101733.34;5059462;28;19932;-84
2023/09/02 03:10:15;;;;;;;;;;;;;;;17.06;nan;101739.34;5061579;28;19920;-83
2023/09/02 03:12:40;;;;;;;;;;;;;;;17.06;nan;101736.63;5062557;28;20380;-83
2023/09/02 03:15:06;;;;;;;;;;;;;;;17.05;nan;101743.09;5060573;28;19917;-83
2023/09/02 03:17:31;;;;;;;;;;;;;;;17.04;nan;101746.88;5061340;28;20388;-83
2023/09/02 03:19:56;;;;;;;;;;;;;;;17.03;nan;101747.97;5060583;28;19920;-83
2023/09/02 03:22:21;;;;;;;;;;;;;;;17.03;nan;101744.44;5062517;28;19920;-84
2023/09/02 03:24:52;;;;;;;;;;;;;;;17.03;nan;101744.44;5060516;28;19973;-83
2023/09/02 03:27:17;;;;;;;;;;;;;;;17.01;nan;101744.72;5061964;28;19954;-83
2023/09/02 03:29:42;;;;;;;;;;;;;;;17.02;nan;101749.06;5062407;28;19960;-83
2023/09/02 03:32:08;;;;;;;;;;;;;;;17.02;nan;101759.88;5060904;28;19923;-83
2023/09/02 03:34:33;;;;;;;;;;;;;;;17.01;nan;101755.56;5058992;28;19924;-83
2023/09/02 03:36:58;;;;;;;;;;;;;;;17.00;nan;101759.34;5061096;28;19927;-83
2023/09/02 03:39:23;;;;;;;;;;;;;;;16.99;nan;101760.41;5058101;28;19924;-83
2023/09/02 03:41:49;;;;;;;;;;;;;;;16.96;nan;101760.16;5058649;28;21645;-83
2023/09/02 03:44:15;;;;;;;;;;;;;;;16.96;nan;101760.97;5062111;28;20019;-83
2023/09/02 03:46:40;;;;;;;;;;;;;;;16.97;nan;101773.41;5061363;28;20361;-83
2023/09/02 03:49:06;;;;;;;;;;;;;;;16.97;nan;101775.31;5060907;28;19970;-83
2023/09/02 03:51:31;;;;;;;;;;;;;;;16.95;nan;101764.75;5058484;28;19916;-83
2023/09/02 03:53:56;;;;;;;;;;;;;;;16.97;nan;101773.41;5059587;28;19951;-83
2023/09/02 03:56:21;;;;;;;;;;;;;;;16.96;nan;101776.38;5061405;28;19917;-83
2023/09/02 03:58:47;;;;;;;;;;;;;;;16.90;nan;101775.56;5062658;28;20411;-83
2023/09/02 04:01:12;;;;;;;;;;;;;;;16.87;nan;101784.19;5059582;28;19931;-83
2023/09/02 04:03:38;;;;;;;;;;;;;;;16.84;nan;101774.72;5058328;28;19969;-83
2023/09/02 04:06:04;;;;;;;;;;;;;;;16.86;nan;101782.56;5060626;28;20316;-83
2023/09/02 04:08:33;;;;;;;;;;;;;;;16.85;nan;101770.09;5055553;28;20379;-83
2023/09/02 04:10:59;;;;;;;;;;;;;;;16.83;nan;101772.28;5057465;28;19924;-83
2023/09/02 04:13:25;;;;;;;;;;;;;;;16.83;nan;101778.50;5059260;28;20366;-83
2023/09/02 04:15:52;;;;;;;;;;;;;;;16.83;nan;101777.69;5058800;28;19925;-83
2023/09/02 04:18:18;;;;;;;;;;;;;;;16.82;nan;101785.00;5063455;28;19981;-83
2023/09/02 04:20:43;;;;;;;;;;;;;;;16.83;nan;101789.31;5059961;28;19928;-83
2023/09/02 04:23:08;;;;;;;;;;;;;;;16.87;nan;101793.13;5059216;28;19927;-83
2023/09/02 04:25:42;;;;;;;;;;;;;;;16.88;nan;101792.06;5061235;28;20343;-84
2023/09/02 04:28:07;;;;;;;;;;;;;;;16.90;nan;101795.31;5061155;28;19916;-83
2023/09/02 04:30:33;;;;;;;;;;;;;;;16.92;nan;101795.88;5062997;28;19924;-83
2023/09/02 04:32:58;;;;;;;;;;;;;;;16.91;nan;101802.38;5062903;28;19920;-83
2023/09/02 04:35:23;;;;;;;;;;;;;;;16.88;nan;101815.63;5060998;28;19931;-84
2023/09/02 04:37:50;;;;;;;;;;;;;;;16.88;nan;101807.50;5052848;28;19924;-83
2023/09/02 04:40:15;;;;;;;;;;;;;;;16.87;nan;101805.84;5060621;28;19928;-83
2023/09/02 04:42:41;;;;;;;;;;;;;;;16.88;nan;101813.72;5058457;28;20190;-83
2023/09/02 04:45:07;;;;;;;;;;;;;;;16.92;nan;101806.69;5059961;28;19916;-83
2023/09/02 04:47:32;;;;;;;;;;;;;;;16.98;nan;101806.72;5062617;28;19917;-83
2023/09/02 04:49:58;;;;;;;;;;;;;;;17.02;nan;101808.63;5062105;28;19925;-83
2023/09/02 04:52:23;;;;;;;;;;;;;;;17.06;nan;101815.16;5059984;28;19960;-83
2023/09/02 04:54:48;;;;;;;;;;;;;;;17.09;nan;101814.63;5060106;28;19973;-83
2023/09/02 04:57:14;;;;;;;;;;;;;;;17.14;nan;101817.34;5060048;28;19921;-83
2023/09/02 04:59:39;;;;;;;;;;;;;;;17.20;nan;101818.97;5060629;28;19962;-83
2023/09/02 05:02:05;;;;;;;;;;;;;;;17.29;nan;101815.75;5061303;28;19971;-84
2023/09/02 05:04:30;;;;;;;;;;;;;;;17.36;nan;101821.72;5061943;28;20418;-83
2023/09/02 05:06:55;;;;;;;;;;;;;;;17.43;nan;101820.41;5057333;28;20363;-83
2023/09/02 05:09:22;;;;;;;;;;;;;;;17.51;nan;101819.88;5056556;28;20384;-84
2023/09/02 05:11:47;;;;;;;;;;;;;;;17.59;nan;101829.34;5060219;28;19928;-83
2023/09/02 05:14:13;;;;;;;;;;;;;;;17.66;nan;101835.34;5056574;28;19920;-83
2023/09/02 05:16:38;;;;;;;;;;;;;;;17.75;nan;101841.88;5060761;28;20575;-83
2023/09/02 05:19:03;;;;;;;;;;;;;;;17.81;nan;101854.38;5061817;28;19954;-83
2023/09/02 05:21:29;;;;;;;;;;;;;;;17.90;nan;101840.25;5060472;28;19927;-83
2023/09/02 05:23:54;;;;;;;;;;;;;;;17.99;nan;101838.66;5057147;28;19999;-83
2023/09/02 05:26:19;;;;;;;;;;;;;;;18.09;nan;101844.06;5059433;28;19916;-84
2023/09/02 05:28:45;;;;;;;;;;;;;;;18.20;nan;101850.31;5060437;28;19951;-83
2023/09/02 05:31:10;;;;;;;;;;;;;;;18.30;nan;101844.84;5060053;28;19924;-83
2023/09/02 05:33:35;;;;;;;;;;;;;;;18.41;nan;101844.59;5058715;28;19963;-83
2023/09/02 05:36:00;;;;;;;;;;;;;;;18.54;nan;101850.53;5057384;28;20396;-83
2023/09/02 05:38:26;;;;;;;;;;;;;;;18.63;nan;101857.06;5053556;28;20430;-83
2023/09/02 05:40:52;;;;;;;;;;;;;;;18.71;nan;101859.22;5063045;28;20099;-84
2023/09/02 05:43:17;;;;;;;;;;;;;;;18.80;nan;101860.25;5063571;28;20016;-84
2023/09/02 05:45:42;;;;;;;;;;;;;;;18.91;nan;101859.16;5064147;28;19928;-83
2023/09/02 05:48:08;;;;;;;;;;;;;;;19.02;nan;101858.00;5065504;28;20389;-83
2023/09/02 05:50:33;;;;;;;;;;;;;;;19.14;nan;101868.56;5060929;28;20295;-83
2023/09/02 05:52:58;;;;;;;;;;;;;;;19.22;nan;101876.16;5059246;28;19927;-83
2023/09/02 05:55:24;;;;;;;;;;;;;;;19.29;nan;101878.56;5063303;28;19991;-83
2023/09/02 05:57:49;;;;;;;;;;;;;;;19.37;nan;101880.69;5062622;28;19943;-83
2023/09/02 06:00:14;;;;;;;;;;;;;;;19.44;nan;101889.34;5060706;28;19969;-83
2023/09/02 06:02:40;;;;;;;;;;;;;;;19.54;nan;101896.66;5063761;28;19935;-83
2023/09/02 06:05:05;;;;;;;;;;;;;;;19.68;nan;101894.13;5074135;28;19917;-83
2023/09/02 06:07:30;;;;;;;;;;;;;;;19.81;nan;101898.97;5063239;28;20389;-83
2023/09/02 06:09:56;;;;;;;;;;;;;;;19.97;nan;101895.03;5064429;28;20018;-83
2023/09/02 06:12:21;;;;;;;;;;;;;;;20.12;nan;101897.66;5064205;28;20235;-83
2023/09/02 06:14:47;;;;;;;;;;;;;;;20.26;nan;101902.41;5061609;28;19976;-83
2023/09/02 06:17:13;;;;;;;;;;;;;;;20.39;nan;101901.78;5061289;28;19916;-83
2023/09/02 06:19:38;;;;;;;;;;;;;;;20.50;nan;101900.63;5065657;28;20790;-83
2023/09/02 06:22:03;;;;;;;;;;;;;;;20.60;nan;101907.88;5062134;28;19928;-83
2023/09/02 06:24:29;;;;;;;;;;;;;;;20.71;nan;101909.41;5061873;28;19927;-83
2023/09/02 06:26:54;;;;;;;;;;;;;;;20.86;nan;101906.53;5061219;28;20429;-83
2023/09/02 06:29:19;;;;;;;;;;;;;;;21.02;nan;101907.97;5062959;28;20412;-83
2023/09/02 06:31:45;;;;;;;;;;;;;;;21.21;nan;101907.22;5061547;28;19924;-83
2023/09/02 06:34:11;;;;;;;;;;;;;;;21.39;nan;101914.66;5061693;28;20467;-83
2023/09/02 06:36:36;;;;;;;;;;;;;;;21.54;nan;101916.34;5061637;28;19931;-83
2023/09/02 06:39:01;;;;;;;;;;;;;;;21.67;nan;101916.44;5055580;28;21091;-83
2023/09/02 06:41:27;;;;;;;;;;;;;;;21.82;nan;101915.41;5056397;28;20296;-83
2023/09/02 06:43:52;;;;;;;;;;;;;;;21.96;nan;101915.47;5061675;28;19946;-85
2023/09/02 06:46:19;;;;;;;;;;;;;;;22.09;nan;101922.13;5059909;28;20404;-84
2023/09/02 06:48:45;;;;;;;;;;;;;;;22.20;nan;101929.03;5066431;28;19983;-83
2023/09/02 06:51:10;;;;;;;;;;;;;;;;;;5066290;28;19928;-82
2023/09/02 06:53:36;;;;;;;;;;;;;;;22.48;nan;101930.75;5064213;28;19920;-83
2023/09/02 06:56:01;;;;;;;;;;;;;;;22.59;nan;101932.19;5060483;28;19951;-83
2023/09/02 06:58:27;;;;;;;;;;;;;;;22.71;nan;101930.91;5058064;28;20535;-83
2023/09/02 07:00:52;;;;;;;;;;;;;;;22.85;nan;101945.44;5058467;28;19963;-83
2023/09/02 07:03:17;;;;;;;;;;;;;;;22.99;nan;101939.97;5060487;28;19970;-83
2023/09/02 07:05:43;;;;;;;;;;;;;;;23.11;nan;101943.81;5061162;28;19917;-83
2023/09/02 07:08:08;;;;;;;;;;;;;;;23.23;nan;101940.59;5060336;28;20309;-83
2023/09/02 07:10:33;;;;;;;;;;;;;;;23.37;nan;101940.59;5057071;28;19964;-83
2023/09/02 07:12:59;;;;;;;;;;;;;;;23.53;nan;101941.88;5058500;28;20012;-83
2023/09/02 07:15:24;;;;;;;;;;;;;;;23.68;nan;101952.50;5062228;28;19917;-83
2023/09/02 07:17:49;;;;;;;;;;;;;;;23.88;nan;101955.88;5059973;28;20234;-83
2023/09/02 07:20:15;;;;;;;;;;;;;;;24.09;nan;101943.38;5060576;28;19923;-83
2023/09/02 07:22:40;;;;;;;;;;;;;;;24.28;nan;101954.94;5062229;28;19931;-83
2023/09/02 07:25:06;;;;;;;;;;;;;;;24.39;nan;101955.53;5066835;28;20016;-85
2023/09/02 07:27:31;;;;;;;;;;;;;;;24.54;nan;101948.84;5062353;28;19978;-82
2023/09/02 07:29:58;;;;;;;;;;;;;;;24.72;nan;101953.31;5062500;28;19931;-83
2023/09/02 07:32:23;;;;;;;;;;;;;;;24.87;nan;101944.69;5057222;28;19920;-82
2023/09/02 07:34:48;;;;;;;;;;;;;;;24.98;nan;101947.97;5058543;28;19990;-82
2023/09/02 07:37:14;;;;;;;;;;;;;;;25.15;nan;101942.56;5056287;28;20413;-81
2023/09/02 07:39:39;;;;;;;;;;;;;;;25.33;nan;101951.66;5055231;28;19924;-82
2023/09/02 07:42:05;;;;;;;;;;;;;;;25.53;nan;101947.50;5053875;28;19924;-82
2023/09/02 07:44:31;;;;;;;;;;;;;;;25.67;nan;101947.34;5055673;28;19920;-82
2023/09/02 07:46:56;;;;;;;;;;;;;;;25.78;nan;101949.50;5060046;28;20472;-82
2023/09/02 07:49:22;;;;;;;;;;;;;;;25.97;nan;101953.84;5058193;28;20070;-82
2023/09/02 07:51:47;;;;;;;;;;;;;;;26.18;nan;101954.81;5056730;28;19925;-82
2023/09/02 07:54:14;;;;;;;;;;;;;;;26.38;nan;101956.91;5060429;28;19920;-83
2023/09/02 07:56:39;;;;;;;;;;;;;;;26.53;nan;101966.59;5060476;28;19924;-82
2023/09/02 07:59:05;;;;;;;;;;;;;;;26.67;nan;101969.16;5062536;28;20379;-82
2023/09/02 08:01:31;;;;;;;;;;;;;;;26.82;nan;101967.81;5060130;28;19927;-82
2023/09/02 08:03:56;;;;;;;;;;;;;;;27.00;nan;101972.16;5061030;28;20414;-83
2023/09/02 08:06:22;;;;;;;;;;;;;;;27.14;nan;101958.19;5059322;28;20007;-82
2023/09/02 08:08:47;;;;;;;;;;;;;;;27.23;nan;101962.47;5053358;28;19925;-82
2023/09/02 08:11:17;;;;;;;;;;;;;;;27.32;nan;101966.00;5057099;28;19959;-83
2023/09/02 08:13:42;;;;;;;;;;;;;;;27.42;nan;101972.25;5062114;28;19916;-82
2023/09/02 08:16:08;;;;;;;;;;;;;;;27.52;nan;101972.69;5060497;28;20284;-83
2023/09/02 08:18:34;;;;;;;;;;;;;;;27.61;nan;101984.44;5059892;28;20808;-83
2023/09/02 08:20:59;;;;;;;;;;;;;;;27.75;nan;101989.72;5057105;28;19920;-83
2023/09/02 08:23:24;;;;;;;;;;;;;;;27.86;nan;101990.16;5062088;28;19917;-83
2023/09/02 08:25:50;;;;;;;;;;;;;;;27.97;nan;101991.34;5057555;28;20415;-82
2023/09/02 08:28:15;;;;;;;;;;;;;;;27.94;nan;101992.00;5058829;28;19962;-83
2023/09/02 08:30:40;;;;;;;;;;;;;;;28.00;nan;101987.91;5057134;28;20424;-83
2023/09/02 08:33:06;;;;;;;;;;;;;;;28.18;nan;101989.38;5059316;28;20624;-83
2023/09/02 08:35:37;;;;;;;;;;;;;;;28.37;nan;101997.19;5057728;28;20430;-82
2023/09/02 08:38:03;;;;;;;;;;;;;;;28.50;nan;101998.03;5056268;28;19933;-83
2023/09/02 08:40:29;;;;;;;;;;;;;;;28.61;nan;101992.91;5059102;28;20447;-82
2023/09/02 08:42:54;;;;;;;;;;;;;;;28.74;nan;101997.31;5057752;28;19944;-83
2023/09/02 08:45:22;;;;;;;;;;;;;;;28.82;nan;101999.16;5057001;28;19920;-83
2023/09/02 08:47:51;;;;;;;;;;;;;;;28.98;nan;102008.41;5059523;28;19960;-83
2023/09/02 08:50:17;;;;;;;;;;;;;;;29.06;nan;102007.47;5056807;28;20278;-83
2023/09/02 08:52:42;;;;;;;;;;;;;;;29.10;nan;102008.44;5058951;28;19923;-83
2023/09/02 08:55:09;;;;;;;;;;;;;;;29.14;nan;102012.09;5059197;28;20417;-83
2023/09/02 08:57:35;;;;;;;;;;;;;;;29.24;nan;102012.78;5057641;28;20643;-83
2023/09/02 09:00:01;;;;;;;;;;;;;;;29.25;nan;102017.16;5056257;28;20309;-83
2023/09/02 09:02:27;;;;;;;;;;;;;;;29.31;nan;102013.03;5060907;28;20050;-82
2023/09/02 09:04:53;;;;;;;;;;;;;;;29.37;nan;102014.41;5056899;28;20167;-83
2023/09/02 09:07:19;;;;;;;;;;;;;;;29.51;nan;102019.63;5056824;28;20646;-83
2023/09/02 09:09:45;;;;;;;;;;;;;;;29.69;nan;102016.25;5055669;28;19927;-83
2023/09/02 09:12:11;;;;;;;;;;;;;;;29.91;nan;102019.66;5052694;28;19924;-83
2023/09/02 09:14:37;;;;;;;;;;;;;;;29.93;nan;102023.69;5052183;28;19925;-83
2023/09/02 09:17:03;;;;;;;;;;;;;;;29.99;nan;102018.72;5057486;28;19923;-83
2023/09/02 09:19:29;;;;;;;;;;;;;;;30.03;nan;102023.19;5055440;28;19920;-83
2023/09/02 09:21:57;;;;;;;;;;;;;;;29.98;nan;102017.09;5051386;28;19928;-83
2023/09/02 09:24:23;;;;;;;;;;;;;;;29.96;nan;102022.16;5059156;28;19978;-83
2023/09/02 09:26:48;;;;;;;;;;;;;;;30.01;nan;102024.72;5057660;28;20384;-83
2023/09/02 09:29:15;;;;;;;;;;;;;;;30.04;nan;102016.56;5056538;28;19962;-84
2023/09/02 09:31:40;;;;;;;;;;;;;;;30.24;nan;102028.56;5056381;28;19920;-85
2023/09/02 09:34:08;;;;;;;;;;;;;;;30.48;nan;102016.59;5057973;28;20013;-84
2023/09/02 09:36:34;;;;;;;;;;;;;;;30.61;nan;102018.19;5059496;28;19923;-83
2023/09/02 09:39:01;;;;;;;;;;;;;;;30.63;nan;102026.91;5057022;28;19920;-83
2023/09/02 09:41:26;;;;;;;;;;;;;;;30.53;nan;102027.41;5057474;28;19921;-83
2023/09/02 09:44:04;;;;;;;;;;;;;;;30.33;nan;102028.41;5055432;28;19927;-85
2023/09/02 09:46:47;;;;;;;;;;;;;;;30.25;nan;102029.38;5073620;28;20433;-84
2023/09/02 09:49:22;;;;;;;;;;;;;;;30.18;nan;102034.72;5058657;28;19927;-84
2023/09/02 09:51:47;;;;;;;;;;;;;;;30.26;nan;102029.03;5058203;28;20002;-83
2023/09/02 09:54:13;;;;;;;;;;;;;;;30.30;nan;102035.44;5054877;28;19929;-83
2023/09/02 09:56:43;;;;;;;;;;;;;;;30.32;nan;102032.34;5057059;28;19923;-85
2023/09/02 09:59:08;;;;;;;;;;;;;;;30.31;nan;102034.28;5052495;28;19920;-86
2023/09/02 10:01:34;;;;;;;;;;;;;;;30.29;nan;102033.84;5055010;28;19929;-86
2023/09/02 10:04:05;;;;;;;;;;;;;;;30.30;nan;102046.50;5051898;28;19931;-86
2023/09/02 10:06:35;;;;;;;;;;;;;;;30.47;nan;102039.06;5055642;28;20716;-84
2023/09/02 10:09:01;;;;;;;;;;;;;;;30.61;nan;102039.47;5058472;28;19928;-84
2023/09/02 10:11:26;;;;;;;;;;;;;;;30.83;nan;102029.81;5058566;28;19952;-83
2023/09/02 10:13:55;;;;;;;;;;;;;;;31.00;nan;102025.88;5053215;28;20438;-84
2023/09/02 10:16:22;;;;;;;;;;;;;;;31.24;nan;102025.75;5052795;28;20319;-83
2023/09/02 10:18:47;;;;;;;;;;;;;;;31.47;nan;102026.72;5057339;28;19924;-83
2023/09/02 10:21:13;;;;;;;;;;;;;;;31.52;nan;102023.66;5053767;28;19950;-83
2023/09/02 10:23:41;;;;;;;;;;;;;;;31.43;nan;102020.28;5051572;28;20396;-84
2023/09/02 10:26:11;;;;;;;;;;;;;;;31.40;nan;102025.72;5053947;28;21030;-84
2023/09/02 10:28:40;;;;;;;;;;;;;;;31.49;nan;102027.16;5057142;28;19989;-85
2023/09/02 10:31:24;;;;;;;;;;;;;;;31.68;nan;102020.84;5057266;28;20571;-84
2023/09/02 10:34:07;;;;;;;;;;;;;;;31.92;nan;102025.34;5056035;28;20046;-84
2023/09/02 10:36:36;;;;;;;;;;;;;;;31.93;nan;102024.19;5057819;28;19923;-84
2023/09/02 10:39:03;;;;;;;;;;;;;;;32.02;nan;102024.78;5059410;28;20391;-84
2023/09/02 10:41:29;;;;;;;;;;;;;;;32.15;nan;102031.81;5055677;28;20734;-84
2023/09/02 10:43:55;;;;;;;;;;;;;;;32.29;nan;102022.97;5058964;28;19965;-84
2023/09/02 10:46:20;;;;;;;;;;;;;;;32.51;nan;102027.00;5059935;28;19920;-84
2023/09/02 10:48:49;;;;;;;;;;;;;;;32.37;nan;102024.75;5059323;28;19924;-84
2023/09/02 10:51:15;;;;;;;;;;;;;;;32.27;nan;102024.50;5051850;28;20647;-84
2023/09/02 10:53:53;;;;;;;;;;;;;;;32.30;nan;102027.34;5064086;28;19924;-84
2023/09/02 10:56:25;;;;;;;;;;;;;;;32.30;nan;102029.31;5055241;28;19925;-84
2023/09/02 10:58:51;;;;;;;;;;;;;;;32.19;nan;102020.78;5057872;28;19925;-85
2023/09/02 11:01:16;;;;;;;;;;;;;;;32.33;nan;102020.31;5056607;28;19977;-83
2023/09/02 11:03:49;;;;;;;;;;;;;;;32.25;nan;102026.81;5059637;28;19995;-83
2023/09/02 11:06:15;;;;;;;;;;;;;;;32.04;nan;102025.22;5059316;28;19920;-84
2023/09/02 11:08:50;;;;;;;;;;;;;;;32.01;nan;102025.16;5059820;28;20403;-84
2023/09/02 11:11:16;;;;;;;;;;;;;;;32.01;nan;102034.28;5058451;28;19920;-85
2023/09/02 11:14:00;;;;;;;;;;;;;;;31.98;nan;102028.66;5057197;28;20043;-82
2023/09/02 11:16:26;;;;;;;;;;;;;;;32.07;nan;102038.34;5056547;28;19927;-83
2023/09/02 11:18:52;;;;;;;;;;;;;;;32.07;nan;102032.81;5059257;28;19920;-84
2023/09/02 11:21:46;;;;;;;;;;;;;;;32.18;nan;102033.03;5060876;28;19924;-83
2023/09/02 11:24:21;;;;;;;;;;;;;;;32.34;nan;102041.31;5057636;28;20517;-83
2023/09/02 11:26:50;;;;;;;;;;;;;;;32.30;nan;102041.22;5058070;28;20380;-84
2023/09/02 11:29:25;;;;;;;;;;;;;;;32.11;nan;102032.88;5060630;28;19959;-83
2023/09/02 11:31:55;;;;;;;;;;;;;;;31.87;nan;102036.72;5057946;28;19924;-83
2023/09/02 11:34:20;;;;;;;;;;;;;;;31.89;nan;102048.25;5057598;28;19920;-83
2023/09/02 11:36:46;;;;;;;;;;;;;;;31.83;nan;102042.19;5054612;28;20073;-84
2023/09/02 11:39:11;;;;;;;;;;;;;;;31.83;nan;102038.63;5059743;28;19931;-84
2023/09/02 11:41:36;;;;;;;;;;;;;;;31.69;nan;102038.28;5056495;28;19934;-83
2023/09/02 11:44:12;;;;;;;;;;;;;;;31.67;nan;102037.84;5059189;28;19974;-84
2023/09/02 11:46:42;;;;;;;;;;;;;;;31.80;nan;102033.81;5056048;28;19923;-81
2023/09/02 11:49:11;;;;;;;;;;;;;;;32.01;nan;102039.00;5059324;28;20438;-81
2023/09/02 11:51:37;;;;;;;;;;;;;;;32.20;nan;102038.22;5055063;28;19920;-84
2023/09/02 11:54:02;;;;;;;;;;;;;;;32.31;nan;102039.25;5060540;28;19920;-83
2023/09/02 11:56:27;;;;;;;;;;;;;;;32.39;nan;102030.72;5055553;28;19925;-81
2023/09/02 11:58:52;;;;;;;;;;;;;;;32.57;nan;102038.59;5058349;28;20758;-83
2023/09/02 12:01:18;;;;;;;;;;;;;;;32.64;nan;102038.72;5057200;28;19924;-83
2023/09/02 12:03:46;;;;;;;;;;;;;;;32.81;nan;102034.69;5057166;28;19931;-83
2023/09/02 12:06:12;;;;;;;;;;;;;;;32.91;nan;102042.41;5057663;28;20011;-83
2023/09/02 12:08:37;;;;;;;;;;;;;;;33.00;nan;102029.06;5058358;28;20608;-83
2023/09/02 12:11:03;;;;;;;;;;;;;;;33.02;nan;102026.72;5060486;28;19921;-84
2023/09/02 12:13:29;;;;;;;;;;;;;;;33.06;nan;102033.16;5058331;28;19924;-83
2023/09/02 12:15:54;;;;;;;;;;;;;;;33.15;nan;102041.22;5057773;28;21454;-83
2023/09/02 12:18:20;;;;;;;;;;;;;;;33.33;nan;102043.16;5058293;28;20015;-82
2023/09/02 12:20:46;;;;;;;;;;;;;;;33.54;nan;102042.66;5057417;28;19923;-84
2023/09/02 12:23:12;;;;;;;;;;;;;;;33.71;nan;102046.88;5062594;28;19925;-84
2023/09/02 12:25:38;;;;;;;;;;;;;;;33.70;nan;102048.06;5059614;28;19970;-83
2023/09/02 12:28:10;;;;;;;;;;;;;;;33.66;nan;102047.22;5057733;28;19924;-83
2023/09/02 12:30:36;;;;;;;;;;;;;;;33.79;nan;102048.59;5059567;28;19927;-80
2023/09/02 12:33:02;;;;;;;;;;;;;;;33.84;nan;102039.97;5058794;28;20407;-83
2023/09/02 12:35:28;;;;;;;;;;;;;;;33.94;nan;102046.84;5060155;28;20031;-83
2023/09/02 12:38:06;;;;;;;;;;;;;;;34.07;nan;102044.63;5056425;28;19920;-85
2023/09/02 12:40:33;;;;;;;;;;;;;;;34.14;nan;102050.28;5059074;28;19928;-85
2023/09/02 12:42:58;;;;;;;;;;;;;;;34.23;nan;102057.13;5057789;28;19936;-84
2023/09/02 12:45:28;;;;;;;;;;;;;;;34.29;nan;102046.47;5057889;28;19921;-84
2023/09/02 12:47:54;;;;;;;;;;;;;;;34.36;nan;102043.81;5054539;28;20009;-82
2023/09/02 12:50:21;;;;;;;;;;;;;;;34.56;nan;102038.06;5057472;28;20019;-84
2023/09/02 12:52:53;;;;;;;;;;;;;;;34.85;nan;102048.34;5059145;28;19920;-85
2023/09/02 12:55:20;;;;;;;;;;;;;;;34.88;nan;102044.78;5057465;28;20005;-83